Time;durP1;ratioP1;P1;durP2;ratioP2;P2;SDS_P1;SDS_P2;PMS_P1;PMS_P2;Temp;Humidity;BMP_temperature;BMP_pressure;BME280_temperature;BME280_humidity;BME280_pressure;Samples;Min_cycle;Max_cycle;Signal;HPM_P1;HPM_P2
2023/09/14 00:00:20;;;;;;;1.15;0.77;;;18.50;99.90;;;;;;5023591;28;20603;-72
2023/09/14 00:02:48;;;;;;;0.70;0.60;;;18.40;99.90;;;;;;5012827;28;20205;-70
2023/09/14 00:05:17;;;;;;;1.15;0.95;;;18.30;99.90;;;;;;5014342;28;20205;-70
2023/09/14 00:07:44;;;;;;;0.80;0.70;;;18.30;99.90;;;;;;5025234;28;20217;-71
2023/09/14 00:10:14;;;;;;;0.90;0.77;;;18.20;99.90;;;;;;5015044;28;20233;-72
2023/09/14 00:12:41;;;;;;;1.80;0.82;;;18.10;99.90;;;;;;5014102;28;20216;-72
2023/09/14 00:15:11;;;;;;;1.65;0.85;;;18.30;99.90;;;;;;5021524;28;20210;-71
2023/09/14 00:17:39;;;;;;;0.95;0.85;;;18.50;99.90;;;;;;5025108;28;20201;-72
2023/09/14 00:20:10;;;;;;;0.90;0.60;;;18.50;99.90;;;;;;5015943;28;20225;-72
2023/09/14 00:22:38;;;;;;;0.90;0.60;;;18.40;99.90;;;;;;5021594;28;20213;-72
2023/09/14 00:25:06;;;;;;;1.25;0.80;;;18.40;99.90;;;;;;5021237;28;20209;-73
2023/09/14 00:27:35;;;;;;;1.20;0.80;;;18.40;99.90;;;;;;5009265;28;20593;-72
2023/09/14 00:30:03;;;;;;;0.85;0.70;;;18.50;99.90;;;;;;5024824;28;20733;-72
2023/09/14 00:32:38;;;;;;;0.90;0.70;;;18.60;99.90;;;;;;5021183;28;20197;-72
2023/09/14 00:35:07;;;;;;;1.10;0.85;;;18.60;99.90;;;;;;5020879;28;20604;-71
2023/09/14 00:37:35;;;;;;;0.70;0.65;;;18.50;99.90;;;;;;5005348;28;20197;-72
2023/09/14 00:40:06;;;;;;;1.20;1.00;;;18.40;99.90;;;;;;5021326;28;20592;-72
2023/09/14 00:42:38;;;;;;;1.42;0.75;;;18.60;99.90;;;;;;5029063;28;20212;-72
2023/09/14 00:45:07;;;;;;;1.08;0.88;;;18.50;99.90;;;;;;5021075;28;20275;-71
2023/09/14 00:47:40;;;;;;;0.70;0.70;;;18.70;99.90;;;;;;5009222;28;20201;-72
2023/09/14 00:50:08;;;;;;;1.45;0.70;;;18.50;99.90;;;;;;5020640;28;20617;-72
2023/09/14 00:52:38;;;;;;;1.58;0.73;;;18.40;99.90;;;;;;5020841;28;20209;-73
2023/09/14 00:55:08;;;;;;;0.80;0.70;;;18.40;99.90;;;;;;5012945;28;20220;-72
2023/09/14 00:57:37;;;;;;;1.55;0.70;;;18.40;99.90;;;;;;5020429;28;20296;-72
2023/09/14 01:00:10;;;;;;;1.60;1.13;;;18.50;99.90;;;;;;5020872;28;20229;-72
2023/09/14 01:02:41;;;;;;;1.45;0.63;;;18.70;99.90;;;;;;5008136;28;20205;-72
2023/09/14 01:05:09;;;;;;;1.23;0.75;;;18.50;99.90;;;;;;5020472;28;20211;-73
2023/09/14 01:07:37;;;;;;;1.38;0.73;;;18.40;99.90;;;;;;5023739;28;20200;-73
2023/09/14 01:10:06;;;;;;;0.60;0.52;;;18.40;99.90;;;;;;5024075;28;20235;-72
2023/09/14 01:12:34;;;;;;;1.48;0.70;;;18.30;99.90;;;;;;5020400;28;20228;-73
2023/09/14 01:15:08;;;;;;;0.80;0.63;;;18.40;99.90;;;;;;5027821;28;20208;-73
2023/09/14 01:17:43;;;;;;;1.08;0.60;;;18.40;99.90;;;;;;5005304;28;20591;-73
2023/09/14 01:20:35;;;;;;;1.10;0.90;;;18.40;99.90;;;;;;5020687;28;20315;-72
2023/09/14 01:23:16;;;;;;;2.15;0.60;;;18.20;99.90;;;;;;5023664;28;20200;-72
2023/09/14 01:25:47;;;;;;;1.23;0.80;;;18.00;99.90;;;;;;5010556;28;20196;-72
2023/09/14 01:28:16;;;;;;;0.80;0.60;;;17.80;99.90;;;;;;5014482;28;20277;-71
2023/09/14 01:30:44;;;;;;;1.23;0.75;;;17.80;99.90;;;;;;5020353;28;20638;-72
2023/09/14 01:33:14;;;;;;;1.00;0.80;;;18.00;99.90;;;;;;5011948;28;20213;-72
2023/09/14 01:35:53;;;;;;;1.55;0.95;;;18.20;99.90;;;;;;5018528;28;20193;-72
2023/09/14 01:38:21;;;;;;;1.08;0.73;;;18.20;99.90;;;;;;5020538;28;20236;-73
2023/09/14 01:40:51;;;;;;;0.70;0.60;;;18.40;99.90;;;;;;5025621;28;20614;-73
2023/09/14 01:43:20;;;;;;;1.75;1.02;;;18.20;99.90;;;;;;5029927;28;20215;-73
2023/09/14 01:45:48;;;;;;;0.95;0.85;;;18.20;99.90;;;;;;5011847;28;20714;-72
2023/09/14 01:48:18;;;;;;;1.00;0.80;;;18.00;99.90;;;;;;5017638;28;20311;-73
2023/09/14 01:50:46;;;;;;;1.50;0.70;;;18.20;99.90;;;;;;5022972;28;20613;-73
2023/09/14 01:53:14;;;;;;;2.40;0.75;;;18.30;99.90;;;;;;5022174;28;20212;-72
2023/09/14 01:55:42;;;;;;;1.25;0.85;;;18.40;99.90;;;;;;5019868;28;20210;-74
2023/09/14 01:58:12;;;;;;;0.75;0.70;;;18.50;99.90;;;;;;5027743;28;20228;-73
2023/09/14 02:00:40;;;;;;;0.95;0.70;;;18.40;99.90;;;;;;5019704;28;20225;-73
2023/09/14 02:03:08;;;;;;;0.70;0.60;;;18.30;99.90;;;;;;5011076;28;20201;-73
2023/09/14 02:05:36;;;;;;;1.52;0.80;;;18.40;99.90;;;;;;5019421;28;20205;-72
2023/09/14 02:08:04;;;;;;;1.00;0.55;;;18.10;99.90;;;;;;5019601;28;20212;-72
2023/09/14 02:10:32;;;;;;;1.58;0.82;;;17.80;99.90;;;;;;5000438;28;20222;-73
2023/09/14 02:13:00;;;;;;;1.60;0.93;;;17.70;99.90;;;;;;5013440;28;20210;-72
2023/09/14 02:15:29;;;;;;;1.98;0.98;;;17.70;99.90;;;;;;5022842;28;20302;-72
2023/09/14 02:17:57;;;;;;;1.00;0.70;;;17.90;99.90;;;;;;5015743;28;20212;-72
2023/09/14 02:20:25;;;;;;;1.65;0.90;;;17.80;99.90;;;;;;5012956;28;20221;-72
2023/09/14 02:22:53;;;;;;;0.70;0.70;;;17.80;99.90;;;;;;5022913;28;20679;-73
2023/09/14 02:25:21;;;;;;;1.23;0.77;;;17.80;99.90;;;;;;5021018;28;20867;-72
2023/09/14 02:27:49;;;;;;;1.10;0.80;;;17.90;99.90;;;;;;5019090;28;20219;-73
2023/09/14 02:30:17;;;;;;;1.02;0.70;;;18.20;99.90;;;;;;5027125;28;20225;-71
2023/09/14 02:32:46;;;;;;;0.90;0.65;;;18.10;99.90;;;;;;5011532;28;20569;-71
2023/09/14 02:35:14;;;;;;;2.40;0.80;;;18.00;99.90;;;;;;5018347;28;20746;-71
2023/09/14 02:37:42;;;;;;;0.88;0.73;;;17.90;99.90;;;;;;5012092;28;20201;-73
2023/09/14 02:40:10;;;;;;;2.22;0.80;;;17.80;99.90;;;;;;5019347;28;20228;-74
2023/09/14 02:42:39;;;;;;;1.58;0.82;;;17.60;99.90;;;;;;5014969;28;20216;-73
2023/09/14 02:45:07;;;;;;;0.70;0.60;;;17.60;99.90;;;;;;5022350;28;20211;-73
2023/09/14 02:47:35;;;;;;;0.93;0.70;;;17.50;99.90;;;;;;5020475;28;20663;-73
2023/09/14 02:50:05;;;;;;;5.07;1.20;;;17.50;99.90;;;;;;5022372;28;20267;-73
2023/09/14 02:52:33;;;;;;;1.20;0.90;;;17.70;99.90;;;;;;5019037;28;20679;-72
2023/09/14 02:55:02;;;;;;;0.70;0.60;;;17.60;99.90;;;;;;5017947;28;20208;-72
2023/09/14 02:57:30;;;;;;;0.93;0.70;;;17.40;99.90;;;;;;5019313;28;20236;-73
2023/09/14 02:59:58;;;;;;;1.02;0.60;;;17.50;99.90;;;;;;5019051;28;20229;-73
2023/09/14 03:02:27;;;;;;;1.75;0.75;;;17.30;99.90;;;;;;5017078;28;20211;-72
2023/09/14 03:04:56;;;;;;;1.23;0.63;;;17.20;99.90;;;;;;5022285;28;20215;-72
2023/09/14 03:07:25;;;;;;;1.27;0.80;;;17.20;99.90;;;;;;5013980;28;20208;-73
2023/09/14 03:09:53;;;;;;;1.25;1.05;;;17.30;99.90;;;;;;5016366;28;20229;-72
2023/09/14 03:12:21;;;;;;;1.10;0.70;;;17.30;99.90;;;;;;5026780;28;20266;-73
2023/09/14 03:14:49;;;;;;;0.80;0.60;;;17.20;99.90;;;;;;5024000;28;20251;-71
2023/09/14 03:17:17;;;;;;;1.15;0.77;;;17.00;99.90;;;;;;5016211;28;20221;-72
2023/09/14 03:19:45;;;;;;;4.63;1.13;;;16.60;99.90;;;;;;5022211;28;20699;-72
2023/09/14 03:22:13;;;;;;;0.80;0.60;;;16.50;99.90;;;;;;5021717;28;20204;-72
2023/09/14 03:24:42;;;;;;;0.70;0.60;;;16.60;99.90;;;;;;5018562;28;20212;-71
2023/09/14 03:27:10;;;;;;;0.77;0.63;;;16.70;99.90;;;;;;5018450;28;20207;-72
2023/09/14 03:29:38;;;;;;;1.20;0.80;;;16.70;99.90;;;;;;5006651;28;20595;-71
2023/09/14 03:32:06;;;;;;;0.80;0.80;;;16.80;99.90;;;;;;5014524;28;20216;-72
2023/09/14 03:34:34;;;;;;;3.35;0.90;;;16.80;99.90;;;;;;5030043;28;20200;-74
2023/09/14 03:37:02;;;;;;;7.15;0.75;;;16.80;99.90;;;;;;5030382;28;20216;-73
2023/09/14 03:39:30;;;;;;;0.80;0.80;;;16.60;99.90;;;;;;5011329;28;20715;-72
2023/09/14 03:41:59;;;;;;;1.35;1.02;;;16.60;99.90;;;;;;5025056;28;20204;-72
2023/09/14 03:44:27;;;;;;;0.90;0.82;;;16.80;99.90;;;;;;5019419;28;20224;-72
2023/09/14 03:46:55;;;;;;;1.80;0.80;;;16.80;99.90;;;;;;5012119;28;20205;-72
2023/09/14 03:49:34;;;;;;;1.35;0.75;;;17.00;99.90;;;;;;5014424;28;20240;-73
2023/09/14 03:52:02;;;;;;;3.88;0.80;;;17.40;99.90;;;;;;4984727;28;20222;-66
2023/09/14 03:54:30;;;;;;;1.10;0.77;;;17.50;99.90;;;;;;4993100;28;20198;-65
2023/09/14 03:56:59;;;;;;;1.83;0.80;;;17.60;99.90;;;;;;4994015;28;20736;-65
2023/09/14 03:59:27;;;;;;;1.85;1.10;;;17.60;99.90;;;;;;4991165;28;20202;-65
2023/09/14 04:01:55;;;;;;;2.55;0.70;;;17.60;99.90;;;;;;4974244;28;20215;-65
2023/09/14 04:04:23;;;;;;;0.85;0.68;;;17.60;99.90;;;;;;4974081;28;20213;-65
2023/09/14 04:06:51;;;;;;;2.00;0.90;;;17.50;99.90;;;;;;4974509;28;20210;-65
2023/09/14 04:09:19;;;;;;;1.90;0.73;;;17.40;99.90;;;;;;4974213;28;20301;-65
2023/09/14 04:11:47;;;;;;;2.35;1.10;;;17.40;99.90;;;;;;4973591;28;20237;-65
2023/09/14 04:14:17;;;;;;;0.90;0.57;;;17.40;99.90;;;;;;4973877;28;20206;-66
2023/09/14 04:16:44;;;;;;;2.80;0.98;;;17.40;99.90;;;;;;4974651;28;20305;-65
2023/09/14 04:19:13;;;;;;;1.00;0.70;;;17.50;99.90;;;;;;4978670;28;20220;-65
2023/09/14 04:21:41;;;;;;;1.10;1.00;;;17.50;99.90;;;;;;4980535;28;20235;-65
2023/09/14 04:24:10;;;;;;;2.75;1.05;;;17.40;99.90;;;;;;4980000;28;20217;-65
2023/09/14 04:26:38;;;;;;;1.65;1.13;;;17.20;99.90;;;;;;4977823;28;20221;-65
2023/09/14 04:29:06;;;;;;;1.10;0.80;;;17.30;99.90;;;;;;4979574;28;20286;-64
2023/09/14 04:31:36;;;;;;;0.80;0.70;;;17.20;99.90;;;;;;4978422;28;20712;-65
2023/09/14 04:34:05;;;;;;;1.00;0.90;;;17.30;99.90;;;;;;4979303;28;20224;-64
2023/09/14 04:36:33;;;;;;;1.00;0.73;;;17.20;99.90;;;;;;4976566;28;20222;-65
2023/09/14 04:39:01;;;;;;;0.90;0.80;;;17.20;99.90;;;;;;4979156;28;20273;-64
2023/09/14 04:41:30;;;;;;;1.90;0.90;;;17.30;99.90;;;;;;4977888;28;20234;-64
2023/09/14 04:43:58;;;;;;;1.20;0.90;;;17.10;99.90;;;;;;4979372;28;20213;-65
2023/09/14 04:46:27;;;;;;;1.30;0.75;;;17.10;99.90;;;;;;4976104;28;20206;-64
2023/09/14 04:48:57;;;;;;;0.80;0.73;;;17.40;99.90;;;;;;4979349;28;20293;-65
2023/09/14 04:51:25;;;;;;;1.25;1.00;;;17.50;99.90;;;;;;4978016;28;20265;-66
2023/09/14 04:53:53;;;;;;;1.60;0.85;;;17.60;99.90;;;;;;4978851;28;20222;-65
2023/09/14 04:56:21;;;;;;;0.90;0.70;;;17.70;99.90;;;;;;4976601;28;20218;-65
2023/09/14 04:58:49;;;;;;;1.30;1.00;;;17.40;99.90;;;;;;4979773;28;20222;-65
2023/09/14 05:01:19;;;;;;;1.33;0.82;;;17.20;99.90;;;;;;4976519;28;20237;-65
2023/09/14 05:03:47;;;;;;;1.25;0.65;;;17.30;99.90;;;;;;4979464;28;20210;-65
2023/09/14 05:06:17;;;;;;;1.15;0.93;;;17.50;99.90;;;;;;4976761;28;20210;-64
2023/09/14 05:08:45;;;;;;;0.80;0.70;;;17.40;99.90;;;;;;4978609;28;20296;-64
2023/09/14 05:11:13;;;;;;;0.90;0.70;;;17.30;99.90;;;;;;4978903;28;20225;-65
2023/09/14 05:13:41;;;;;;;1.00;0.70;;;17.20;99.90;;;;;;4978814;28;20214;-65
2023/09/14 05:16:09;;;;;;;1.17;0.80;;;17.20;99.90;;;;;;4975910;28;20215;-65
2023/09/14 05:18:37;;;;;;;1.42;0.90;;;17.40;99.90;;;;;;4978133;28;20269;-65
2023/09/14 05:21:05;;;;;;;1.10;1.00;;;17.60;99.90;;;;;;4978305;28;20230;-64
2023/09/14 05:23:34;;;;;;;0.80;0.70;;;17.50;99.90;;;;;;4977424;28;20225;-65
2023/09/14 05:26:02;;;;;;;1.60;0.93;;;17.50;99.90;;;;;;4975666;28;20221;-65
2023/09/14 05:28:30;;;;;;;2.10;1.00;;;17.40;99.90;;;;;;4977858;28;20260;-65
2023/09/14 05:30:58;;;;;;;1.83;0.90;;;17.30;99.90;;;;;;4977967;28;20241;-64
2023/09/14 05:33:26;;;;;;;1.02;0.93;;;17.20;99.90;;;;;;4977522;28;20210;-65
2023/09/14 05:35:54;;;;;;;1.33;1.10;;;17.10;99.90;;;;;;4976422;28;20213;-66
2023/09/14 05:38:22;;;;;;;2.15;0.95;;;16.90;99.90;;;;;;4977670;28;20209;-65
2023/09/14 05:40:53;;;;;;;1.15;0.90;;;17.00;99.90;;;;;;4978532;28;20231;-64
2023/09/14 05:43:21;;;;;;;0.95;0.85;;;17.10;99.90;;;;;;4978053;28;20221;-65
2023/09/14 05:45:50;;;;;;;0.93;0.70;;;17.30;99.90;;;;;;4975876;28;20209;-65
2023/09/14 05:48:18;;;;;;;1.05;0.93;;;17.30;99.90;;;;;;4977105;28;20293;-67
2023/09/14 05:50:47;;;;;;;0.95;0.95;;;17.30;99.90;;;;;;4977917;28;20352;-65
2023/09/14 05:53:15;;;;;;;0.90;0.80;;;17.50;99.90;;;;;;4977863;28;21061;-65
2023/09/14 05:55:43;;;;;;;1.50;1.05;;;17.50;99.90;;;;;;4976066;28;20703;-65
2023/09/14 05:58:12;;;;;;;1.58;0.88;;;17.40;99.90;;;;;;4971786;28;20199;-65
2023/09/14 06:00:40;;;;;;;1.33;0.80;;;17.60;99.90;;;;;;4968533;28;20300;-67
2023/09/14 06:03:08;;;;;;;1.33;0.88;;;17.50;99.90;;;;;;4957545;28;20204;-65
2023/09/14 06:05:36;;;;;;;1.65;1.08;;;17.40;99.90;;;;;;4968568;28;20297;-66
2023/09/14 06:08:04;;;;;;;2.35;0.70;;;17.30;99.90;;;;;;4971944;28;20206;-65
2023/09/14 06:10:33;;;;;;;1.27;0.85;;;17.50;99.90;;;;;;4969220;28;20235;-64
2023/09/14 06:13:01;;;;;;;1.67;0.88;;;17.20;99.90;;;;;;4970147;28;20261;-65
2023/09/14 06:15:30;;;;;;;1.23;0.80;;;16.70;99.90;;;;;;4970393;28;20206;-65
2023/09/14 06:17:58;;;;;;;2.72;1.00;;;16.40;99.90;;;;;;4968973;28;20721;-64
2023/09/14 06:20:26;;;;;;;1.17;1.08;;;16.20;99.90;;;;;;4968609;28;20313;-66
2023/09/14 06:22:54;;;;;;;1.35;0.90;;;16.00;99.90;;;;;;4969877;28;20210;-64
2023/09/14 06:25:22;;;;;;;1.10;0.80;;;15.80;99.90;;;;;;4970270;28;20215;-65
2023/09/14 06:27:51;;;;;;;2.25;1.10;;;15.70;99.90;;;;;;4971954;28;20229;-65
2023/09/14 06:30:19;;;;;;;3.13;0.70;;;15.60;99.90;;;;;;4971899;28;20227;-65
2023/09/14 06:32:48;;;;;;;2.42;1.10;;;15.40;99.90;;;;;;4972025;28;20721;-65
2023/09/14 06:35:17;;;;;;;1.10;1.00;;;15.40;99.90;;;;;;4971578;28;20214;-64
2023/09/14 06:37:45;;;;;;;1.20;1.10;;;15.30;99.90;;;;;;4972260;28;20214;-65
2023/09/14 06:40:14;;;;;;;1.80;0.95;;;15.40;99.90;;;;;;4979909;28;20230;-64
2023/09/14 06:42:42;;;;;;;1.02;0.90;;;15.30;99.90;;;;;;4964190;28;20198;-65
2023/09/14 06:45:11;;;;;;;2.08;1.17;;;15.30;99.90;;;;;;4971384;28;20261;-65
2023/09/14 06:47:39;;;;;;;2.13;1.30;;;15.30;99.90;;;;;;4971819;28;20211;-65
2023/09/14 06:50:09;;;;;;;1.55;1.20;;;15.30;99.90;;;;;;4971721;28;20709;-65
2023/09/14 06:52:37;;;;;;;1.23;1.13;;;15.30;99.90;;;;;;4971704;28;20288;-65
2023/09/14 06:55:06;;;;;;;2.65;1.15;;;15.40;99.90;;;;;;4971645;28;20210;-65
2023/09/14 06:57:35;;;;;;;2.30;1.30;;;15.40;99.90;;;;;;4971810;28;20210;-65
2023/09/14 07:00:08;;;;;;;2.28;1.45;;;15.50;99.90;;;;;;4971639;28;20223;-64
2023/09/14 07:02:36;;;;;;;2.30;1.60;;;15.60;99.90;;;;;;4971602;28;20202;-65
2023/09/14 07:05:05;;;;;;;2.97;1.10;;;15.60;99.90;;;;;;4971539;28;20253;-65
2023/09/14 07:07:34;;;;;;;2.35;1.38;;;15.70;99.90;;;;;;4971191;28;20206;-65
2023/09/14 07:10:02;;;;;;;1.58;1.40;;;15.80;99.90;;;;;;4977116;28;20608;-65
2023/09/14 07:12:30;;;;;;;2.15;1.40;;;15.90;99.90;;;;;;4979403;28;20250;-65
2023/09/14 07:14:58;;;;;;;2.85;1.70;;;15.90;99.90;;;;;;4971553;28;20226;-65
2023/09/14 07:17:26;;;;;;;1.95;1.27;;;15.80;99.90;;;;;;4971582;28;20211;-64
2023/09/14 07:19:54;;;;;;;1.35;1.25;;;15.80;99.90;;;;;;4972809;28;20690;-65
2023/09/14 07:22:22;;;;;;;4.20;1.33;;;15.80;99.90;;;;;;4974806;28;20572;-65
2023/09/14 07:24:51;;;;;;;2.60;1.15;;;15.80;99.90;;;;;;4975146;28;20606;-64
2023/09/14 07:27:21;;;;;;;1.45;1.13;;;15.70;99.90;;;;;;4975114;28;20230;-65
2023/09/14 07:29:49;;;;;;;2.45;1.20;;;15.60;99.90;;;;;;4975230;28;20226;-65
2023/09/14 07:32:18;;;;;;;1.52;1.30;;;15.60;99.90;;;;;;4975093;28;20225;-65
2023/09/14 07:34:46;;;;;;;3.80;1.63;;;15.70;99.90;;;;;;4974811;28;20737;-64
2023/09/14 07:37:14;;;;;;;2.15;1.48;;;15.80;99.90;;;;;;4975023;28;20202;-65
2023/09/14 07:39:43;;;;;;;1.52;1.20;;;15.90;99.90;;;;;;4986456;28;20683;-65
2023/09/14 07:42:13;;;;;;;3.67;1.63;;;16.10;99.90;;;;;;4987226;28;20227;-65
2023/09/14 07:44:41;;;;;;;2.83;1.20;;;16.20;99.90;;;;;;4974561;28;20205;-64
2023/09/14 07:47:08;;;;;;;1.75;1.20;;;16.30;99.90;;;;;;4975089;28;20612;-65
2023/09/14 07:49:36;;;;;;;1.80;1.08;;;16.50;99.90;;;;;;4974474;28;20242;-65
2023/09/14 07:52:05;;;;;;;1.75;1.40;;;16.60;99.90;;;;;;4974922;28;20226;-65
2023/09/14 07:54:34;;;;;;;2.38;1.50;;;16.70;99.90;;;;;;4974353;28;20217;-65
2023/09/14 07:57:02;;;;;;;0.80;0.80;;;17.00;99.90;;;;;;4974848;28;20781;-64
2023/09/14 07:59:31;;;;;;;3.03;1.30;;;17.10;99.90;;;;;;4974691;28;20234;-65
2023/09/14 08:01:59;;;;;;;3.13;1.60;;;17.20;99.90;;;;;;4975570;28;20214;-64
2023/09/14 08:04:27;;;;;;;1.60;1.00;;;17.30;99.90;;;;;;4974615;28;20206;-64
2023/09/14 08:06:55;;;;;;;1.35;1.25;;;17.50;99.90;;;;;;4974842;28;20202;-64
2023/09/14 08:09:24;;;;;;;2.20;1.13;;;17.70;99.90;;;;;;4982858;28;20201;-65
2023/09/14 08:11:52;;;;;;;5.32;1.05;;;17.70;99.90;;;;;;4989679;28;20277;-65
2023/09/14 08:14:19;;;;;;;2.58;0.82;;;17.90;99.90;;;;;;4974209;28;20211;-65
2023/09/14 08:16:49;;;;;;;3.40;1.10;;;17.90;99.90;;;;;;4974414;28;20199;-65
2023/09/14 08:19:17;;;;;;;1.05;0.80;;;18.10;99.90;;;;;;4974357;28;20210;-65
2023/09/14 08:21:45;;;;;;;4.97;1.88;;;18.30;99.90;;;;;;4973911;28;20226;-65
2023/09/14 08:24:13;;;;;;;1.23;0.80;;;18.60;99.90;;;;;;4974168;28;20214;-65
2023/09/14 08:26:40;;;;;;;1.95;1.20;;;18.80;99.90;;;;;;4974071;28;20261;-65
2023/09/14 08:29:08;;;;;;;2.22;0.93;;;19.10;99.90;;;;;;4974113;28;20688;-65
2023/09/14 08:31:37;;;;;;;3.05;0.82;;;19.30;99.90;;;;;;4973326;28;20600;-65
2023/09/14 08:34:06;;;;;;;1.52;1.02;;;19.30;99.90;;;;;;4974039;28;20206;-65
2023/09/14 08:36:34;;;;;;;0.98;0.85;;;19.30;99.90;;;;;;4973968;28;20635;-66
2023/09/14 08:39:02;;;;;;;1.00;0.73;;;19.40;99.90;;;;;;4974026;28;20225;-66
2023/09/14 08:41:44;;;;;;;1.73;0.82;;;19.50;99.90;;;;;;4989760;28;20761;-65
2023/09/14 08:44:14;;;;;;;1.13;0.80;;;19.70;99.90;;;;;;4973919;28;20203;-64
2023/09/14 08:46:43;;;;;;;1.45;0.85;;;19.70;99.90;;;;;;4973873;28;20677;-65
2023/09/14 08:49:13;;;;;;;5.03;1.23;;;19.50;99.90;;;;;;4973915;28;20211;-65
2023/09/14 08:51:43;;;;;;;2.92;0.90;;;19.30;99.90;;;;;;4973050;28;20317;-65
2023/09/14 08:54:11;;;;;;;1.38;0.90;;;19.30;99.90;;;;;;4973619;28;20305;-65
2023/09/14 08:56:46;;;;;;;0.90;0.70;;;19.20;99.90;;;;;;4973700;28;20219;-65
2023/09/14 08:59:18;;;;;;;2.10;1.38;;;19.50;99.90;;;;;;4973729;28;20234;-65
2023/09/14 09:01:48;;;;;;;2.55;1.00;;;19.80;99.90;;;;;;4973374;28;20230;-65
2023/09/14 09:04:17;;;;;;;0.80;0.80;;;19.80;99.90;;;;;;4973453;28;20662;-65
2023/09/14 09:06:46;;;;;;;0.80;0.70;;;19.80;99.90;;;;;;4973136;28;20222;-64
2023/09/14 09:09:16;;;;;;;1.05;0.80;;;19.90;99.90;;;;;;4979983;28;20198;-65
2023/09/14 09:11:46;;;;;;;1.20;0.60;;;20.30;99.90;;;;;;4981637;28;20230;-65
2023/09/14 09:14:14;;;;;;;1.20;0.80;;;20.50;99.90;;;;;;4973235;28;20234;-66
2023/09/14 09:16:42;;;;;;;2.42;0.88;;;20.60;99.90;;;;;;4973080;28;20210;-65
2023/09/14 09:19:10;;;;;;;2.15;0.98;;;20.80;99.90;;;;;;4973337;28;20213;-65
2023/09/14 09:21:42;;;;;;;1.75;0.75;;;21.10;99.90;;;;;;4972635;28;20234;-65
2023/09/14 09:24:13;;;;;;;1.33;1.05;;;21.40;99.90;;;;;;4973107;28;20199;-66
2023/09/14 09:26:41;;;;;;;1.27;1.15;;;21.60;99.90;;;;;;4973020;28;20203;-65
2023/09/14 09:29:15;;;;;;;1.38;0.85;;;21.90;99.90;;;;;;4973166;28;20214;-65
2023/09/14 09:31:45;;;;;;;2.80;1.15;;;22.10;99.90;;;;;;4972476;28;20229;-65
2023/09/14 09:34:14;;;;;;;1.60;0.80;;;22.20;99.90;;;;;;4972801;28;20230;-65
2023/09/14 09:36:44;;;;;;;2.53;1.13;;;22.30;99.90;;;;;;4972546;28;20215;-65
2023/09/14 09:39:13;;;;;;;1.15;0.88;;;22.30;99.90;;;;;;4978747;28;20262;-65
2023/09/14 09:41:45;;;;;;;2.08;0.80;;;22.40;99.90;;;;;;4990199;28;20551;-65
2023/09/14 09:44:15;;;;;;;1.00;0.70;;;22.40;99.90;;;;;;4972091;28;20203;-65
2023/09/14 09:46:44;;;;;;;0.98;0.65;;;22.80;99.90;;;;;;4972546;28;20724;-65
2023/09/14 09:49:22;;;;;;;0.90;0.70;;;22.90;99.90;;;;;;4972614;28;20249;-65
2023/09/14 09:51:53;;;;;;;1.45;1.08;;;23.40;99.90;;;;;;5052648;22;20234;-65
2023/09/14 09:54:23;;;;;;;1.55;0.90;;;23.10;99.90;;;;;;5054916;28;20752;-65
2023/09/14 09:56:52;;;;;;;1.48;0.70;;;22.90;99.90;;;;;;5051268;28;20212;-65
2023/09/14 09:59:20;;;;;;;1.33;0.80;;;22.70;99.90;;;;;;5058155;28;20214;-65
2023/09/14 10:01:49;;;;;;;0.70;0.55;;;22.60;99.90;;;;;;5035771;28;20228;-65
2023/09/14 10:04:18;;;;;;;0.70;0.50;;;22.60;99.90;;;;;;5031261;28;20582;-65
2023/09/14 10:06:52;;;;;;;0.95;0.60;;;22.70;99.90;;;;;;5034670;28;20213;-65
2023/09/14 10:09:20;;;;;;;1.33;0.70;;;23.20;99.90;;;;;;5040344;28;20204;-65
2023/09/14 10:11:50;;;;;;;0.70;0.60;;;23.70;99.90;;;;;;5050782;28;20235;-65
2023/09/14 10:14:21;;;;;;;3.15;1.30;;;24.00;99.60;;;;;;5036185;28;20259;-65
2023/09/14 10:16:51;;;;;;;1.27;0.70;;;24.10;99.10;;;;;;5030975;28;20300;-65
2023/09/14 10:19:20;;;;;;;1.50;0.70;;;24.00;98.30;;;;;;5031056;28;20501;-65
2023/09/14 10:21:52;;;;;;;1.15;0.70;;;23.90;97.80;;;;;;5036395;28;20243;-65
2023/09/14 10:24:22;;;;;;;1.88;1.00;;;24.30;99.30;;;;;;5037194;28;20203;-65
2023/09/14 10:26:52;;;;;;;1.33;1.05;;;24.40;97.50;;;;;;5031612;28;20236;-66
2023/09/14 10:29:21;;;;;;;0.80;0.70;;;24.80;99.20;;;;;;5031013;28;20258;-65
2023/09/14 10:31:51;;;;;;;1.45;1.35;;;24.70;97.60;;;;;;5030342;28;20639;-65
2023/09/14 10:34:21;;;;;;;0.80;0.70;;;24.30;98.50;;;;;;5030740;28;20258;-65
2023/09/14 10:36:51;;;;;;;1.50;0.70;;;23.90;99.70;;;;;;5037703;28;20561;-65
2023/09/14 10:39:23;;;;;;;1.38;0.82;;;23.60;98.90;;;;;;5039751;28;20249;-65
2023/09/14 10:41:51;;;;;;;0.90;0.70;;;23.70;99.90;;;;;;5050315;28;20231;-65
2023/09/14 10:44:19;;;;;;;1.13;0.88;;;23.50;99.90;;;;;;5036050;28;20200;-66
2023/09/14 10:46:48;;;;;;;0.60;0.60;;;23.40;99.20;;;;;;5030079;28;20205;-65
2023/09/14 10:49:16;;;;;;;2.00;1.33;;;23.70;99.90;;;;;;5031077;28;20283;-65
2023/09/14 10:51:47;;;;;;;1.08;0.85;;;23.80;99.80;;;;;;5031366;28;20263;-65
2023/09/14 10:54:15;;;;;;;1.45;0.90;;;23.80;99.20;;;;;;5030463;28;20910;-65
2023/09/14 10:56:48;;;;;;;1.23;0.80;;;23.90;98.80;;;;;;5034367;28;20208;-65
2023/09/14 10:59:16;;;;;;;3.15;0.80;;;23.30;99.20;;;;;;5034964;28;20211;-65
2023/09/14 11:01:48;;;;;;;1.30;0.95;;;22.90;99.90;;;;;;5034536;28;20224;-66
2023/09/14 11:04:19;;;;;;;0.70;0.60;;;22.80;99.90;;;;;;5034750;28;20200;-65
2023/09/14 11:06:49;;;;;;;2.88;0.98;;;22.60;99.90;;;;;;5033970;28;20219;-65
2023/09/14 11:09:21;;;;;;;0.90;0.70;;;22.40;99.90;;;;;;5043410;28;20211;-65
2023/09/14 11:11:51;;;;;;;1.02;0.70;;;22.30;99.90;;;;;;5054076;28;20246;-65
2023/09/14 11:14:24;;;;;;;2.00;0.80;;;22.30;99.90;;;;;;5039523;28;20224;-65
2023/09/14 11:16:56;;;;;;;5.05;0.80;;;22.20;99.90;;;;;;5033949;28;20216;-65
2023/09/14 11:19:44;;;;;;;2.15;0.90;;;22.20;99.90;;;;;;5036387;28;20663;-65
2023/09/14 11:22:26;;;;;;;1.88;1.13;;;22.20;99.90;;;;;;5036317;28;20222;-65
2023/09/14 11:24:55;;;;;;;1.20;0.70;;;22.30;99.90;;;;;;5033949;28;20258;-65
2023/09/14 11:27:28;;;;;;;1.33;0.90;;;22.40;99.90;;;;;;5034133;28;20286;-65
2023/09/14 11:29:57;;;;;;;2.60;0.85;;;22.10;99.90;;;;;;5033943;28;20685;-65
2023/09/14 11:32:28;;;;;;;2.97;1.55;;;22.60;99.90;;;;;;5034235;28;20201;-65
2023/09/14 11:35:01;;;;;;;1.55;0.85;;;22.80;99.90;;;;;;5038868;28;20303;-65
2023/09/14 11:37:32;;;;;;;1.17;0.80;;;22.60;99.90;;;;;;5033953;28;20732;-65
2023/09/14 11:40:12;;;;;;;0.77;0.60;;;22.80;99.90;;;;;;5049337;28;20568;-65
2023/09/14 11:43:25;;;;;;;1.50;1.05;;;23.20;99.90;;;;;;5053009;28;20289;-65
2023/09/14 11:46:13;;;;;;;1.00;0.90;;;24.00;99.90;;;;;;5033824;28;20200;-65
2023/09/14 11:48:47;;;;;;;0.90;0.70;;;24.70;98.50;;;;;;5033614;28;20644;-65
2023/09/14 11:51:24;;;;;;;1.25;1.15;;;25.50;97.40;;;;;;5043608;28;20232;-65
2023/09/14 11:53:56;;;;;;;1.52;1.13;;;26.10;96.70;;;;;;5035244;28;20216;-65
2023/09/14 11:56:25;;;;;;;1.08;0.75;;;26.10;95.20;;;;;;5033603;28;20729;-65
2023/09/14 11:58:58;;;;;;;1.00;0.80;;;26.40;95.50;;;;;;5033418;28;20208;-65
2023/09/14 12:01:27;;;;;;;1.23;0.70;;;27.00;93.80;;;;;;5033538;28;20251;-65
2023/09/14 12:03:56;;;;;;;2.00;0.90;;;27.30;93.40;;;;;;5034630;28;20215;-66
2023/09/14 12:06:25;;;;;;;1.30;0.65;;;27.40;94.30;;;;;;5037978;28;20283;-65
2023/09/14 12:08:53;;;;;;;1.33;1.23;;;27.10;93.20;;;;;;5038564;28;20295;-66
2023/09/14 12:11:22;;;;;;;1.77;0.82;;;25.80;94.50;;;;;;5053123;28;20224;-66
2023/09/14 12:13:50;;;;;;;0.90;0.80;;;24.70;96.40;;;;;;5043404;28;20205;-65
2023/09/14 12:16:22;;;;;;;1.25;1.15;;;24.10;97.40;;;;;;5033513;28;20205;-65
2023/09/14 12:18:51;;;;;;;3.05;1.00;;;23.60;97.90;;;;;;5034765;28;20200;-65
2023/09/14 12:21:23;;;;;;;1.08;0.70;;;23.10;98.90;;;;;;5033453;28;20220;-65
2023/09/14 12:23:52;;;;;;;1.65;1.08;;;23.00;99.90;;;;;;5032825;28;20216;-65
2023/09/14 12:26:22;;;;;;;0.73;0.73;;;23.00;99.90;;;;;;5032969;28;20274;-65
2023/09/14 12:28:53;;;;;;;2.63;0.85;;;23.40;98.60;;;;;;5032714;28;20219;-65
2023/09/14 12:31:25;;;;;;;2.92;0.90;;;24.00;97.60;;;;;;5033047;28;20227;-65
2023/09/14 12:33:54;;;;;;;0.90;0.80;;;24.90;96.70;;;;;;5036411;28;20650;-65
2023/09/14 12:36:22;;;;;;;0.95;0.80;;;25.70;96.30;;;;;;5032674;28;20621;-65
2023/09/14 12:38:53;;;;;;;1.67;0.95;;;25.90;94.30;;;;;;5046046;28;20282;-65
2023/09/14 12:41:23;;;;;;;0.98;0.73;;;26.40;94.80;;;;;;5052566;28;20735;-66
2023/09/14 12:43:51;;;;;;;0.90;0.88;;;25.70;94.70;;;;;;5034972;28;20277;-65
2023/09/14 12:46:20;;;;;;;1.10;0.70;;;25.10;95.60;;;;;;5032633;28;20216;-66
2023/09/14 12:48:50;;;;;;;1.45;0.75;;;24.40;95.40;;;;;;5037741;28;20666;-65
2023/09/14 12:51:22;;;;;;;1.00;0.80;;;23.70;96.30;;;;;;5032176;28;20255;-64
2023/09/14 12:53:50;;;;;;;0.70;0.60;;;23.10;97.70;;;;;;5032351;28;20284;-64
2023/09/14 12:56:21;;;;;;;1.00;0.60;;;23.00;97.50;;;;;;5032348;28;20236;-65
2023/09/14 12:58:51;;;;;;;1.60;0.98;;;22.70;98.30;;;;;;5032358;28;20255;-65